Aviation Digital Data Service (ADDS)

Output produced by METARs form (1256 UTC 30 May 2017)
found at http://aviationweather.gov/adds/metars/
 
KEKN 301120Z 3012/3112 00000KT P6SM BKN250 
     FM301400 26004KT P6SM BKN050 
     FM302000 26008KT P6SM BKN070 
     FM302300 26006KT P6SM SCT070 
     FM310300 00000KT P6SM SCT080 
     FM311100 23004KT P6SM BKN120